createdAt,value
2019-06-27T00:00:19.574Z,102526.95
2019-06-27T00:02:47.884Z,102524.79
2019-06-27T00:05:16.187Z,102528.90
2019-06-27T00:07:44.503Z,102525.21
2019-06-27T00:10:12.896Z,102522.69
2019-06-27T00:12:41.291Z,102534.23
2019-06-27T00:15:09.709Z,102537.81
2019-06-27T00:17:38.090Z,102536.98
2019-06-27T00:20:06.535Z,102540.08
2019-06-27T00:22:34.848Z,102538.02
2019-06-27T00:25:03.538Z,102530.91
2019-06-27T00:27:31.880Z,102531.33
2019-06-27T00:30:00.239Z,102537.89
2019-06-27T00:32:28.733Z,102538.37
2019-06-27T00:34:57.029Z,102534.42
2019-06-27T00:37:25.445Z,102541.89
2019-06-27T00:39:53.736Z,102527.41
2019-06-27T00:42:22.044Z,102536.98
2019-06-27T00:44:50.360Z,102530.83
2019-06-27T00:47:18.705Z,102532.02
2019-06-27T00:49:47.125Z,102533.74
2019-06-27T00:52:15.456Z,102531.05
2019-06-27T00:54:43.817Z,102532.96
2019-06-27T00:57:14.591Z,102534.64
2019-06-27T00:59:42.179Z,102543.00
2019-06-27T01:02:10.540Z,102537.52
2019-06-27T01:04:38.832Z,102534.44
2019-06-27T01:07:07.136Z,102533.16
2019-06-27T01:09:35.440Z,102532.94
2019-06-27T01:12:03.780Z,102542.83
2019-06-27T01:14:32.610Z,102545.88
2019-06-27T01:17:00.936Z,102538.11
2019-06-27T01:19:29.371Z,102546.06
2019-06-27T01:21:57.668Z,102542.48
2019-06-27T01:24:26.081Z,102540.40
2019-06-27T01:26:54.369Z,102537.70
2019-06-27T01:29:22.773Z,102536.92
2019-06-27T01:31:51.086Z,102529.94
2019-06-27T01:34:19.375Z,102534.48
2019-06-27T01:36:47.679Z,102534.48
2019-06-27T01:39:15.969Z,102537.48
2019-06-27T01:41:44.347Z,102536.92
2019-06-27T01:44:30.256Z,102533.69
2019-06-27T01:46:58.958Z,102537.08
2019-06-27T01:49:27.311Z,102534.84
2019-06-27T01:51:55.714Z,102536.20
2019-06-27T01:54:24.095Z,102537.92
2019-06-27T01:56:52.561Z,102533.36
2019-06-27T01:59:20.853Z,102535.05
2019-06-27T02:01:49.157Z,102534.20
2019-06-27T02:04:17.527Z,102532.88
2019-06-27T02:06:45.805Z,102534.03
2019-06-27T02:09:14.261Z,102537.89
2019-06-27T02:11:42.669Z,102533.00
2019-06-27T02:14:10.951Z,102532.84
2019-06-27T02:16:39.317Z,102536.42
2019-06-27T02:19:07.710Z,102534.83
2019-06-27T02:21:36.050Z,102537.38
2019-06-27T02:24:04.480Z,102535.17
2019-06-27T02:26:33.013Z,102529.59
2019-06-27T02:29:01.391Z,102531.53
2019-06-27T02:31:29.799Z,102531.83
2019-06-27T02:33:58.075Z,102530.80
2019-06-27T02:36:26.360Z,102526.48
2019-06-27T02:38:54.836Z,102537.63
2019-06-27T02:41:23.185Z,102541.61
2019-06-27T02:43:51.465Z,102538.16
2019-06-27T02:46:19.973Z,102542.78
2019-06-27T02:48:48.318Z,102537.92
2019-06-27T02:51:16.720Z,102547.68
2019-06-27T02:53:45.173Z,102546.31
2019-06-27T02:56:13.477Z,102539.55
2019-06-27T02:58:41.993Z,102536.95
2019-06-27T03:01:10.321Z,102533.19
2019-06-27T03:03:38.704Z,102540.26
2019-06-27T03:06:07.010Z,102541.45
2019-06-27T03:08:35.313Z,102540.36
2019-06-27T03:11:03.678Z,102543.09
2019-06-27T03:13:31.973Z,102541.95
2019-06-27T03:16:00.794Z,102537.63
2019-06-27T03:18:29.217Z,102538.39
2019-06-27T03:20:57.693Z,102546.28
2019-06-27T03:23:26.039Z,102544.66
2019-06-27T03:25:54.423Z,102547.19
2019-06-27T03:28:22.731Z,102551.55
2019-06-27T03:30:51.016Z,102549.38
2019-06-27T03:33:19.351Z,102556.74
2019-06-27T03:35:47.706Z,102550.52
2019-06-27T03:38:16.100Z,102548.34
2019-06-27T03:40:44.418Z,102550.28
2019-06-27T03:43:13.023Z,102554.88
2019-06-27T03:45:41.485Z,102559.74
2019-06-27T03:48:09.804Z,102555.31
2019-06-27T03:50:38.142Z,102558.91
2019-06-27T03:53:06.463Z,102559.95
2019-06-27T03:55:34.765Z,102554.22
2019-06-27T03:58:03.133Z,102555.67
2019-06-27T04:00:34.697Z,102569.93
2019-06-27T04:03:03.141Z,102567.83
2019-06-27T04:05:31.460Z,102563.43
2019-06-27T04:07:59.863Z,102564.80
2019-06-27T04:10:28.199Z,102570.82
2019-06-27T04:12:56.681Z,102559.53
2019-06-27T04:15:25.173Z,102575.69
2019-06-27T04:17:53.458Z,102566.66
2019-06-27T04:20:21.742Z,102563.66
2019-06-27T04:22:50.135Z,102565.03
2019-06-27T04:25:18.718Z,102574.56
2019-06-27T04:27:47.075Z,102576.42
2019-06-27T04:30:15.366Z,102569.27
2019-06-27T04:32:43.804Z,102566.51
2019-06-27T04:35:12.094Z,102572.77
2019-06-27T04:37:40.388Z,102572.23
2019-06-27T04:40:08.792Z,102573.87
2019-06-27T04:42:37.238Z,102578.80
2019-06-27T04:45:07.132Z,102582.06
2019-06-27T04:47:35.438Z,102589.42
2019-06-27T04:50:03.991Z,102590.52
2019-06-27T04:52:32.325Z,102587.53
2019-06-27T04:55:03.825Z,102585.30
2019-06-27T04:57:32.416Z,102583.63
2019-06-27T05:00:00.957Z,102590.39
2019-06-27T05:02:30.939Z,102586.30
2019-06-27T05:05:02.502Z,102585.43
2019-06-27T05:07:30.879Z,102580.44
2019-06-27T05:09:59.166Z,102590.00
2019-06-27T05:12:28.017Z,102585.06
2019-06-27T05:14:56.308Z,102579.56
2019-06-27T05:17:24.781Z,102585.46
2019-06-27T05:19:53.189Z,102588.49
2019-06-27T05:22:21.497Z,102587.66
2019-06-27T05:24:49.883Z,102591.42
2019-06-27T05:27:18.137Z,102587.59
2019-06-27T05:29:46.589Z,102591.85
2019-06-27T05:32:14.936Z,102598.31
2019-06-27T05:34:43.335Z,102593.00
2019-06-27T05:37:11.647Z,102598.12
2019-06-27T05:39:40.896Z,102597.48
2019-06-27T05:42:09.383Z,102599.27
2019-06-27T05:44:37.667Z,102602.53
2019-06-27T05:47:06.006Z,102598.70
2019-06-27T05:49:34.624Z,102604.97
2019-06-27T05:52:03.039Z,102602.84
2019-06-27T05:54:31.362Z,102600.91
2019-06-27T05:56:59.762Z,102604.20
2019-06-27T05:59:28.214Z,102604.97
2019-06-27T06:01:56.720Z,102605.84
2019-06-27T06:04:25.011Z,102608.73
2019-06-27T06:06:53.349Z,102607.16
2019-06-27T06:09:21.638Z,102609.20
2019-06-27T06:11:50.091Z,102614.02
2019-06-27T06:14:18.413Z,102608.59
2019-06-27T06:16:48.340Z,102609.95
2019-06-27T06:19:16.642Z,102617.32
2019-06-27T06:21:45.018Z,102620.65
2019-06-27T06:24:13.295Z,102619.55
2019-06-27T06:26:41.761Z,102616.32
2019-06-27T06:29:10.329Z,102623.34
2019-06-27T06:31:38.637Z,102630.01
2019-06-27T06:34:07.115Z,102626.27
2019-06-27T06:36:35.400Z,102632.44
2019-06-27T06:39:05.735Z,102623.92
2019-06-27T06:41:34.035Z,102635.05
2019-06-27T06:44:03.198Z,102631.95
2019-06-27T06:46:31.578Z,102629.49
2019-06-27T06:48:59.892Z,102628.39
2019-06-27T06:51:28.183Z,102628.34
2019-06-27T06:53:56.523Z,102629.05
2019-06-27T06:56:24.807Z,102633.37
2019-06-27T06:58:53.159Z,102630.28
2019-06-27T07:01:22.372Z,102635.88
2019-06-27T07:03:50.682Z,102634.20
2019-06-27T07:06:18.981Z,102632.47
2019-06-27T07:08:47.396Z,102630.75
2019-06-27T07:11:15.871Z,102636.92
2019-06-27T07:13:46.109Z,102641.87
2019-06-27T07:16:14.236Z,102647.39
2019-06-27T07:18:42.820Z,102646.42
2019-06-27T07:21:11.122Z,102646.58
2019-06-27T07:23:39.435Z,102643.17
2019-06-27T07:26:07.709Z,102636.51
2019-06-27T07:28:36.052Z,102647.91
2019-06-27T07:31:17.451Z,102650.42
2019-06-27T07:33:34.527Z,102653.75
2019-06-27T07:36:02.866Z,102651.76
2019-06-27T07:38:31.157Z,102651.60
2019-06-27T07:40:59.508Z,102652.34
2019-06-27T07:43:27.813Z,102642.70
2019-06-27T07:45:56.124Z,102663.83
2019-06-27T07:48:24.401Z,102658.84
2019-06-27T07:50:52.805Z,102653.55
2019-06-27T07:53:21.111Z,102649.82
2019-06-27T07:55:49.384Z,102651.66
2019-06-27T07:58:17.762Z,102650.48
2019-06-27T08:00:46.218Z,102649.80
2019-06-27T08:03:14.498Z,102651.17
2019-06-27T08:05:42.830Z,102653.45
2019-06-27T08:08:11.629Z,102654.45
2019-06-27T08:10:40.021Z,102650.77
2019-06-27T08:13:08.337Z,102652.70
2019-06-27T08:15:36.617Z,102649.36
2019-06-27T08:18:05.075Z,102647.94
2019-06-27T08:20:33.373Z,102657.17
2019-06-27T08:23:01.637Z,102648.68
2019-06-27T08:25:30.109Z,102647.99
2019-06-27T08:27:58.454Z,102653.30
2019-06-27T08:30:27.077Z,102645.59
2019-06-27T08:32:55.414Z,102651.88
2019-06-27T08:35:23.833Z,102653.30
2019-06-27T08:37:52.186Z,102654.35
2019-06-27T08:40:20.554Z,102652.34
2019-06-27T08:42:48.964Z,102645.30
2019-06-27T08:45:17.315Z,102655.20
2019-06-27T08:47:45.728Z,102653.50
2019-06-27T08:50:14.083Z,102655.77
2019-06-27T08:52:43.065Z,102655.20
2019-06-27T08:55:11.474Z,102659.25
2019-06-27T08:57:39.830Z,102663.19
2019-06-27T09:00:08.200Z,102658.88
2019-06-27T09:02:36.543Z,102658.68
2019-06-27T09:05:06.807Z,102666.16
2019-06-27T09:07:35.187Z,102658.58
2019-06-27T09:10:04.802Z,102655.89
2019-06-27T09:12:33.101Z,102654.64
2019-06-27T09:15:01.549Z,102651.17
2019-06-27T09:17:29.898Z,102649.23
2019-06-27T09:19:58.305Z,102657.84
2019-06-27T09:22:26.598Z,102650.08
2019-06-27T09:24:54.991Z,102649.75
2019-06-27T09:27:23.432Z,102648.63
2019-06-27T09:29:51.860Z,102648.82
2019-06-27T09:32:25.641Z,102643.61
2019-06-27T09:34:50.219Z,102649.10
2019-06-27T09:37:18.556Z,102643.21
2019-06-27T09:39:46.972Z,102654.60
2019-06-27T09:42:15.349Z,102657.83
2019-06-27T09:44:43.723Z,102659.95
2019-06-27T09:47:12.008Z,102658.48
2019-06-27T09:49:40.347Z,102653.17
2019-06-27T09:52:08.779Z,102662.64
2019-06-27T09:54:37.062Z,102657.41
2019-06-27T09:57:05.832Z,102657.80
2019-06-27T09:59:34.118Z,102654.37
2019-06-27T10:02:02.492Z,102661.23
2019-06-27T10:04:30.793Z,102656.36
2019-06-27T10:06:59.088Z,102655.84
2019-06-27T10:09:27.388Z,102658.84
2019-06-27T10:11:55.778Z,102653.09
2019-06-27T10:14:24.097Z,102659.63
2019-06-27T10:16:53.179Z,102652.76
2019-06-27T10:19:21.550Z,102661.70
2019-06-27T10:21:49.932Z,102660.13
2019-06-27T10:24:18.358Z,102659.20
2019-06-27T10:26:48.533Z,102660.70
2019-06-27T10:29:16.906Z,102661.78
2019-06-27T10:31:46.854Z,102658.59
2019-06-27T10:34:15.310Z,102662.97
2019-06-27T10:36:43.713Z,102660.41
2019-06-27T10:39:12.218Z,102665.83
2019-06-27T10:41:40.543Z,102656.50
2019-06-27T10:44:08.963Z,102658.64
2019-06-27T10:46:37.246Z,102660.84
2019-06-27T10:49:05.578Z,102650.75
2019-06-27T10:51:33.982Z,102658.78
2019-06-27T10:54:02.284Z,102655.22
2019-06-27T10:56:30.632Z,102653.11
2019-06-27T10:58:59.000Z,102652.39
2019-06-27T11:01:27.288Z,102656.02
2019-06-27T11:03:55.622Z,102650.84
2019-06-27T11:06:23.909Z,102652.38
2019-06-27T11:08:52.202Z,102647.52
2019-06-27T11:11:28.319Z,102647.27
2019-06-27T11:14:09.561Z,102651.25
2019-06-27T11:16:33.468Z,102643.25
2019-06-27T11:19:01.753Z,102648.09
2019-06-27T11:21:30.907Z,102645.92
2019-06-27T11:23:59.312Z,102643.73
2019-06-27T11:26:27.597Z,102645.05
2019-06-27T11:28:55.873Z,102644.84
2019-06-27T11:31:24.188Z,102640.56
2019-06-27T11:33:52.529Z,102639.69
2019-06-27T11:36:20.856Z,102641.54
2019-06-27T11:38:49.161Z,102636.29
2019-06-27T11:41:17.434Z,102637.77
2019-06-27T11:43:45.780Z,102626.82
2019-06-27T11:46:14.273Z,102630.30
2019-06-27T11:48:42.557Z,102637.14
2019-06-27T11:51:10.832Z,102636.23
2019-06-27T11:53:39.275Z,102636.30
2019-06-27T11:56:07.584Z,102633.63
2019-06-27T11:58:35.863Z,102629.86
2019-06-27T12:01:04.169Z,102628.95
2019-06-27T12:03:45.026Z,102631.62
2019-06-27T12:06:02.610Z,102626.94
2019-06-27T12:08:31.224Z,102619.31
2019-06-27T12:10:59.520Z,102626.50
2019-06-27T12:13:27.851Z,102615.92
2019-06-27T12:15:56.132Z,102618.60
2019-06-27T12:18:25.392Z,102614.14
2019-06-27T12:20:53.769Z,102615.77
2019-06-27T12:23:22.171Z,102616.06
2019-06-27T12:25:50.997Z,102619.15
2019-06-27T12:28:19.378Z,102617.66
2019-06-27T12:30:47.799Z,102618.87
2019-06-27T12:33:16.250Z,102618.23
2019-06-27T12:35:44.563Z,102612.56
2019-06-27T12:38:12.847Z,102607.34
2019-06-27T12:40:41.976Z,102608.93
2019-06-27T12:43:13.534Z,102613.14
2019-06-27T12:45:40.263Z,102612.03
2019-06-27T12:48:08.591Z,102610.70
2019-06-27T12:50:37.078Z,102610.72
2019-06-27T12:53:05.423Z,102609.59
2019-06-27T12:55:33.802Z,102602.14
2019-06-27T12:58:02.178Z,102600.77
2019-06-27T13:00:30.575Z,102605.20
2019-06-27T13:02:58.911Z,102599.57
2019-06-27T13:05:27.356Z,102604.09
2019-06-27T13:07:55.680Z,102605.33
2019-06-27T13:10:24.172Z,102597.94
2019-06-27T13:12:52.481Z,102600.06
2019-06-27T13:15:20.829Z,102589.94
2019-06-27T13:17:49.134Z,102588.95
2019-06-27T13:20:17.407Z,102588.61
2019-06-27T13:22:45.741Z,102589.36
2019-06-27T13:25:14.022Z,102591.95
2019-06-27T13:27:42.425Z,102598.36
2019-06-27T13:30:10.809Z,102594.73
2019-06-27T13:32:39.178Z,102588.95
2019-06-27T13:35:07.609Z,102589.32
2019-06-27T13:37:35.929Z,102582.87
2019-06-27T13:40:05.759Z,102592.63
2019-06-27T13:42:38.048Z,102586.20
2019-06-27T13:45:05.918Z,102583.87
2019-06-27T13:47:34.358Z,102577.45
2019-06-27T13:50:03.034Z,102576.97
2019-06-27T13:52:31.325Z,102573.69
2019-06-27T13:54:59.669Z,102572.92
2019-06-27T13:57:28.102Z,102573.25
2019-06-27T13:59:56.399Z,102575.04
2019-06-27T14:02:24.706Z,102579.78
2019-06-27T14:04:57.567Z,102589.09
2019-06-27T14:07:24.169Z,102570.21
2019-06-27T14:09:56.910Z,102571.78
2019-06-27T14:12:22.629Z,102564.97
2019-06-27T14:14:59.639Z,102566.80
2019-06-27T14:17:21.060Z,102572.23
2019-06-27T14:19:50.853Z,102559.83
2019-06-27T14:22:32.790Z,102565.49
2019-06-27T14:24:49.374Z,102560.28
2019-06-27T14:27:17.842Z,102560.45
2019-06-27T14:29:46.243Z,102565.80
2019-06-27T14:32:14.643Z,102566.11
2019-06-27T14:34:42.928Z,102553.12
2019-06-27T14:37:11.212Z,102557.31
2019-06-27T14:39:39.588Z,102549.85
2019-06-27T14:42:08.119Z,102549.47
2019-06-27T14:44:36.560Z,102559.05
2019-06-27T14:47:04.927Z,102550.64
2019-06-27T14:49:33.201Z,102559.73
2019-06-27T14:52:04.678Z,102564.15
2019-06-27T14:54:33.071Z,102559.67
2019-06-27T14:57:01.436Z,102559.80
2019-06-27T14:59:29.872Z,102556.69
2019-06-27T15:01:58.323Z,102548.92
2019-06-27T15:04:29.691Z,102551.56
2019-06-27T15:06:58.565Z,102548.52
2019-06-27T15:09:26.990Z,102543.84
2019-06-27T15:11:55.360Z,102547.82
2019-06-27T15:14:23.655Z,102552.95
2019-06-27T15:16:52.227Z,102547.23
2019-06-27T15:19:20.567Z,102549.97
2019-06-27T15:21:48.880Z,102553.06
2019-06-27T15:24:17.187Z,102550.53
2019-06-27T15:26:45.641Z,102550.92
2019-06-27T15:29:14.308Z,102553.55
2019-06-27T15:31:42.594Z,102555.16
2019-06-27T15:34:11.020Z,102556.90
2019-06-27T15:36:39.531Z,102562.15
2019-06-27T15:39:11.743Z,102563.18
2019-06-27T15:41:37.936Z,102552.03
2019-06-27T15:44:06.264Z,102562.19
2019-06-27T15:46:34.622Z,102561.00
2019-06-27T15:49:03.042Z,102564.61
2019-06-27T15:51:31.316Z,102563.57
2019-06-27T15:53:59.959Z,102554.56
2019-06-27T15:56:28.293Z,102555.01
2019-06-27T15:58:56.776Z,102553.23
2019-06-27T16:01:25.881Z,102547.34
2019-06-27T16:03:54.548Z,102549.75
2019-06-27T16:06:22.926Z,102554.00
2019-06-27T16:08:51.315Z,102551.86
2019-06-27T16:11:19.595Z,102542.78
2019-06-27T16:13:48.832Z,102541.55
2019-06-27T16:16:17.107Z,102541.91
2019-06-27T16:18:45.387Z,102528.67
2019-06-27T16:21:13.871Z,102537.31
2019-06-27T16:23:42.305Z,102532.47
2019-06-27T16:26:10.585Z,102535.70
2019-06-27T16:28:38.894Z,102532.95
2019-06-27T16:31:07.320Z,102529.86
2019-06-27T16:33:35.955Z,102532.94
2019-06-27T16:36:04.237Z,102529.06
2019-06-27T16:38:32.533Z,102522.89
2019-06-27T16:41:00.971Z,102522.80
2019-06-27T16:43:29.347Z,102525.98
2019-06-27T16:45:57.797Z,102531.22
2019-06-27T16:48:26.089Z,102525.28
2019-06-27T16:50:54.783Z,102517.13
2019-06-27T16:53:23.199Z,102516.41
2019-06-27T16:55:51.682Z,102519.80
2019-06-27T16:58:19.966Z,102522.17
2019-06-27T17:00:48.303Z,102517.44
2019-06-27T17:03:16.707Z,102518.11
2019-06-27T17:05:45.060Z,102519.58
2019-06-27T17:08:13.344Z,102521.84
2019-06-27T17:10:41.851Z,102523.80
2019-06-27T17:13:10.132Z,102525.83
2019-06-27T17:15:38.449Z,102529.80
2019-06-27T17:18:06.903Z,102535.07
2019-06-27T17:20:35.229Z,102537.81
2019-06-27T17:23:05.566Z,102536.19
2019-06-27T17:25:33.670Z,102530.28
2019-06-27T17:28:02.324Z,102526.66
2019-06-27T17:30:30.701Z,102530.20
2019-06-27T17:32:59.013Z,102525.66
2019-06-27T17:35:27.383Z,102525.98
2019-06-27T17:37:56.364Z,102529.76
2019-06-27T17:40:24.820Z,102525.20
2019-06-27T17:42:53.198Z,102527.27
2019-06-27T17:45:21.519Z,102531.65
2019-06-27T17:47:49.830Z,102521.45
2019-06-27T17:50:18.133Z,102519.86
2019-06-27T17:52:46.518Z,102522.20
2019-06-27T17:55:14.948Z,102529.05
2019-06-27T17:57:46.156Z,102526.03
2019-06-27T18:00:13.300Z,102524.23
2019-06-27T18:02:41.571Z,102521.55
2019-06-27T18:05:11.570Z,102531.74
2019-06-27T18:07:39.895Z,102529.00
2019-06-27T18:10:08.852Z,102531.09
2019-06-27T18:12:37.236Z,102539.98
2019-06-27T18:15:09.301Z,102535.94
2019-06-27T18:17:37.806Z,102528.27
2019-06-27T18:20:08.539Z,102538.11
2019-06-27T18:22:36.921Z,102533.60
2019-06-27T18:25:05.881Z,102532.73
2019-06-27T18:27:34.159Z,102534.56
2019-06-27T18:30:02.590Z,102527.64
2019-06-27T18:32:30.953Z,102529.52
2019-06-27T18:34:59.301Z,102531.56
2019-06-27T18:37:30.043Z,102515.95
2019-06-27T18:39:59.839Z,102514.04
2019-06-27T18:42:28.084Z,102511.36
2019-06-27T18:44:57.199Z,102520.77
2019-06-27T18:47:26.521Z,102515.48
2019-06-27T18:49:54.940Z,102523.81
2019-06-27T18:52:23.488Z,102513.38
2019-06-27T18:54:51.961Z,102518.42
2019-06-27T18:57:20.451Z,102514.44
2019-06-27T18:59:48.868Z,102518.93
2019-06-27T19:02:20.211Z,102504.64
2019-06-27T19:04:48.619Z,102520.91
2019-06-27T19:07:17.174Z,102511.02
2019-06-27T19:09:50.520Z,102510.34
2019-06-27T19:12:19.400Z,102506.77
2019-06-27T19:14:48.256Z,102508.45
2019-06-27T19:17:18.570Z,102502.17
2019-06-27T19:19:48.707Z,102503.16
2019-06-27T19:22:22.557Z,102510.16
2019-06-27T19:24:53.486Z,102503.28
2019-06-27T19:27:22.142Z,102506.09
2019-06-27T19:29:53.508Z,102500.19
2019-06-27T19:32:22.061Z,102493.39
2019-06-27T19:34:53.043Z,102496.67
2019-06-27T19:37:21.595Z,102500.78
2019-06-27T19:39:50.005Z,102500.34
2019-06-27T19:42:18.604Z,102498.55
2019-06-27T19:44:47.159Z,102495.56
2019-06-27T19:47:15.709Z,102499.30
2019-06-27T19:49:44.287Z,102499.53
2019-06-27T19:52:12.762Z,102503.89
2019-06-27T19:54:41.238Z,102499.87
2019-06-27T19:57:09.861Z,102503.64
2019-06-27T19:59:38.405Z,102511.20
2019-06-27T20:02:07.272Z,102508.31
2019-06-27T20:04:35.854Z,102501.14
2019-06-27T20:07:04.343Z,102505.57
2019-06-27T20:09:32.886Z,102512.88
2019-06-27T20:12:01.217Z,102508.94
2019-06-27T20:14:29.624Z,102508.94
2019-06-27T20:16:58.111Z,102512.31
2019-06-27T20:19:26.484Z,102509.05
2019-06-27T20:21:54.801Z,102510.68
2019-06-27T20:24:23.236Z,102512.37
2019-06-27T20:26:51.694Z,102504.77
2019-06-27T20:29:20.166Z,102499.77
2019-06-27T20:31:48.611Z,102501.72
2019-06-27T20:34:16.980Z,102507.56
2019-06-27T20:36:45.298Z,102514.52
2019-06-27T20:39:13.697Z,102500.83
2019-06-27T20:41:42.098Z,102502.99
2019-06-27T20:44:10.542Z,102507.98
2019-06-27T20:46:38.859Z,102513.16
2019-06-27T20:49:07.171Z,102508.47
2019-06-27T20:51:35.557Z,102514.84
2019-06-27T20:54:03.989Z,102511.21
2019-06-27T20:56:32.272Z,102517.68
2019-06-27T20:59:00.550Z,102521.84
2019-06-27T21:01:31.578Z,102518.84
2019-06-27T21:03:59.215Z,102518.42
2019-06-27T21:06:29.171Z,102527.63
2019-06-27T21:08:57.577Z,102527.94
2019-06-27T21:11:25.986Z,102521.95
2019-06-27T21:13:54.356Z,102525.56
2019-06-27T21:16:22.773Z,102526.78
2019-06-27T21:18:52.194Z,102523.52
2019-06-27T21:21:20.946Z,102524.99
2019-06-27T21:23:49.615Z,102521.72
2019-06-27T21:26:17.892Z,102520.84
2019-06-27T21:28:46.279Z,102519.29
2019-06-27T21:31:14.649Z,102510.06
2019-06-27T21:33:42.946Z,102508.13
2019-06-27T21:36:11.289Z,102510.61
2019-06-27T21:38:39.607Z,102510.55
2019-06-27T21:41:08.012Z,102503.45
2019-06-27T21:43:36.361Z,102507.50
2019-06-27T21:46:04.824Z,102507.27
2019-06-27T21:48:33.124Z,102505.13
2019-06-27T21:51:01.454Z,102500.43
2019-06-27T21:53:29.765Z,102499.59
2019-06-27T21:55:58.076Z,102498.44
2019-06-27T21:58:26.378Z,102495.85
2019-06-27T22:00:54.891Z,102493.73
2019-06-27T22:03:23.386Z,102493.17
2019-06-27T22:05:51.661Z,102491.10
2019-06-27T22:08:20.134Z,102488.90
2019-06-27T22:10:48.449Z,102485.05
2019-06-27T22:13:16.741Z,102485.88
2019-06-27T22:15:45.054Z,102491.05
2019-06-27T22:18:13.446Z,102482.78
2019-06-27T22:20:41.970Z,102479.22
2019-06-27T22:23:10.255Z,102477.62
2019-06-27T22:25:40.850Z,102480.90
2019-06-27T22:28:08.742Z,102480.69
2019-06-27T22:30:37.064Z,102481.26
2019-06-27T22:33:05.374Z,102481.52
2019-06-27T22:35:33.739Z,102478.93
2019-06-27T22:38:20.178Z,102482.47
2019-06-27T22:41:06.599Z,102478.67
2019-06-27T22:43:52.771Z,102466.30
2019-06-27T22:46:39.061Z,102469.04
2019-06-27T22:49:06.630Z,102472.34
2019-06-27T22:51:52.932Z,102465.24
2019-06-27T22:54:25.771Z,102458.14
2019-06-27T22:56:54.047Z,102460.39
2019-06-27T22:59:22.522Z,102456.28
2019-06-27T23:01:50.958Z,102448.13
2019-06-27T23:04:19.261Z,102454.14
2019-06-27T23:06:47.588Z,102457.44
2019-06-27T23:09:15.980Z,102450.23
2019-06-27T23:11:44.260Z,102457.13
2019-06-27T23:14:12.635Z,102461.76
2019-06-27T23:16:41.060Z,102457.44
2019-06-27T23:19:11.671Z,102457.44
2019-06-27T23:21:39.493Z,102456.87
2019-06-27T23:24:07.817Z,102457.44
2019-06-27T23:26:36.111Z,102457.19
2019-06-27T23:29:04.511Z,102455.06
2019-06-27T23:31:32.877Z,102455.96
2019-06-27T23:34:01.354Z,102453.23
2019-06-27T23:36:29.925Z,102457.64
2019-06-27T23:38:58.309Z,102455.69
2019-06-27T23:41:26.661Z,102456.05
2019-06-27T23:43:55.243Z,102456.94
2019-06-27T23:46:40.430Z,102456.14
2019-06-27T23:49:09.855Z,102451.20
2019-06-27T23:51:38.153Z,102458.31
2019-06-27T23:54:06.463Z,102447.58
2019-06-27T23:56:35.007Z,102448.22
2019-06-27T23:59:03.644Z,102447.22
